Time;durP1;ratioP1;P1;durP2;ratioP2;P2;SDS_P1;SDS_P2;PMS_P1;PMS_P2;Temp;Humidity;BMP_temperature;BMP_pressure;BME280_temperature;BME280_humidity;BME280_pressure;Samples;Min_cycle;Max_cycle;Signal;HPM_P1;HPM_P2
2023/03/08 00:00:07;;;;;;;11.52;5.32;;;4.90;99.90;;;;;;4952996;28;20234;-81
2023/03/08 00:02:32;;;;;;;12.45;5.60;;;4.90;99.90;;;;;;4979735;28;20194;-85
2023/03/08 00:04:58;;;;;;;12.93;5.60;;;4.90;99.90;;;;;;4944396;28;20180;-81
2023/03/08 00:07:24;;;;;;;13.03;6.43;;;4.90;99.90;;;;;;4966705;28;20172;-81
2023/03/08 00:09:49;;;;;;;19.00;7.40;;;4.90;99.90;;;;;;4966648;28;20207;-81
2023/03/08 00:12:18;;;;;;;12.23;6.27;;;4.90;99.90;;;;;;4974966;28;20188;-82
2023/03/08 00:14:44;;;;;;;10.13;6.15;;;4.80;99.90;;;;;;4944306;28;20270;-80
2023/03/08 00:17:09;;;;;;;10.00;5.20;;;4.80;99.90;;;;;;4967117;28;20742;-82
2023/03/08 00:19:35;;;;;;;9.67;6.00;;;4.70;99.90;;;;;;4966250;28;20987;-85
2023/03/08 00:22:00;;;;;;;13.90;6.00;;;4.70;99.90;;;;;;4957657;28;20192;-82
2023/03/08 00:24:26;;;;;;;9.13;4.33;;;4.70;99.90;;;;;;4949221;28;20205;-84
2023/03/08 00:26:51;;;;;;;17.33;5.50;;;4.60;99.90;;;;;;4969254;28;20238;-84
2023/03/08 00:29:17;;;;;;;12.70;5.87;;;4.70;99.90;;;;;;4946287;28;20204;-83
2023/03/08 00:31:42;;;;;;;15.37;7.17;;;4.70;99.90;;;;;;4949167;28;20187;-83
2023/03/08 00:34:08;;;;;;;10.93;5.80;;;4.70;99.90;;;;;;4967374;28;20287;-84
2023/03/08 00:36:33;;;;;;;10.93;6.60;;;4.70;99.90;;;;;;4957071;28;20211;-83
2023/03/08 00:38:59;;;;;;;13.20;7.20;;;4.70;99.90;;;;;;4950584;28;20184;-80
2023/03/08 00:41:25;;;;;;;9.87;6.07;;;;;;;;;;4971546;28;20183;-83
2023/03/08 00:43:50;;;;;;;12.10;5.88;;;4.70;99.90;;;;;;4956812;28;20211;-84
2023/03/08 00:46:16;;;;;;;17.17;6.00;;;4.60;99.90;;;;;;4955472;28;20567;-84
2023/03/08 00:48:42;;;;;;;8.27;5.80;;;4.60;99.90;;;;;;4968836;28;20182;-84
2023/03/08 00:51:08;;;;;;;11.33;6.47;;;4.50;99.90;;;;;;4979978;28;20225;-81
2023/03/08 00:53:33;;;;;;;11.90;5.90;;;4.40;99.90;;;;;;4996336;28;20427;-82
2023/03/08 00:55:59;;;;;;;10.00;5.50;;;4.40;99.90;;;;;;4979835;28;20454;-81
2023/03/08 00:58:27;;;;;;;11.30;4.78;;;4.30;99.90;;;;;;4995632;28;20188;-82
2023/03/08 01:00:53;;;;;;;10.48;6.35;;;4.30;99.90;;;;;;4980320;28;20212;-82
2023/03/08 01:03:20;;;;;;;9.60;4.80;;;4.20;99.90;;;;;;4994066;28;20188;-80
2023/03/08 01:05:49;;;;;;;10.57;5.90;;;4.10;99.90;;;;;;4991284;28;20447;-81
2023/03/08 01:08:15;;;;;;;11.95;6.63;;;4.00;99.90;;;;;;4993207;28;20244;-82
2023/03/08 01:11:02;;;;;;;15.38;6.70;;;3.90;99.90;;;;;;4995227;28;20207;-83
2023/03/08 01:13:31;;;;;;;12.70;5.43;;;3.80;99.90;;;;;;4990182;28;20191;-83
2023/03/08 01:15:56;;;;;;;3.40;2.85;;;3.80;99.90;;;;;;4974177;28;20183;-81
2023/03/08 01:18:22;;;;;;;12.37;6.77;;;3.80;99.90;;;;;;4952395;28;20212;-84
2023/03/08 01:20:59;;;;;;;11.70;5.40;;;3.70;99.90;;;;;;4962766;28;20623;-82
2023/03/08 01:23:25;;;;;;;9.30;6.15;;;3.80;99.90;;;;;;4944071;28;20208;-81
2023/03/08 01:26:02;;;;;;;13.35;7.07;;;3.70;99.90;;;;;;4950896;28;20215;-81
2023/03/08 01:28:28;;;;;;;10.50;5.72;;;3.70;99.90;;;;;;4979286;28;20225;-81
2023/03/08 01:30:59;;;;;;;10.87;5.53;;;3.70;99.90;;;;;;4993823;28;20208;-83
2023/03/08 01:33:25;;;;;;;10.93;4.85;;;3.60;99.90;;;;;;4967366;28;20599;-83
2023/03/08 01:35:50;;;;;;;10.90;5.60;;;3.60;99.90;;;;;;4952923;28;20183;-81
2023/03/08 01:38:16;;;;;;;15.77;6.40;;;3.70;99.90;;;;;;4956579;28;20652;-82
2023/03/08 01:40:41;;;;;;;8.83;5.60;;;3.70;99.90;;;;;;4940417;28;20204;-81
2023/03/08 01:43:22;;;;;;;11.70;5.93;;;3.70;99.90;;;;;;4963043;28;21014;-85
2023/03/08 01:46:18;;;;;;;10.98;6.10;;;3.70;99.90;;;;;;4971081;28;20186;-84
2023/03/08 01:49:09;;;;;;;14.52;5.35;;;3.70;99.90;;;;;;4952599;28;20180;-83
2023/03/08 01:52:06;;;;;;;7.95;5.10;;;3.50;99.90;;;;;;4948892;28;20262;-82
2023/03/08 01:54:46;;;;;;;12.25;5.32;;;3.40;99.90;;;;;;4948408;28;20562;-85
2023/03/08 01:57:33;;;;;;;6.72;4.53;;;3.30;99.90;;;;;;4947671;28;20636;-84
2023/03/08 02:00:08;;;;;;;6.57;4.40;;;3.30;99.90;;;;;;4949727;28;20211;-84
2023/03/08 02:02:41;;;;;;;7.65;3.85;;;3.30;99.90;;;;;;4967851;28;20193;-84
2023/03/08 02:05:08;;;;;;;7.35;4.47;;;3.20;99.90;;;;;;4965924;28;20187;-83
2023/03/08 02:07:35;;;;;;;7.93;3.78;;;3.20;99.90;;;;;;4959084;28;20194;-82
2023/03/08 02:10:01;;;;;;;5.70;3.42;;;3.20;99.90;;;;;;4958904;28;20196;-83
2023/03/08 02:12:27;;;;;;;16.93;4.40;;;3.20;99.90;;;;;;4950255;28;20266;-86
2023/03/08 02:14:54;;;;;;;11.60;5.82;;;3.10;99.90;;;;;;4960994;28;20446;-85
2023/03/08 02:17:20;;;;;;;8.55;5.20;;;3.00;99.90;;;;;;4939773;28;20278;-83
2023/03/08 02:20:09;;;;;;;10.52;4.70;;;2.90;99.90;;;;;;4964554;28;21218;-83
2023/03/08 02:22:39;;;;;;;7.35;4.22;;;2.90;99.90;;;;;;4963779;28;20218;-84
2023/03/08 02:25:14;;;;;;;11.82;5.65;;;2.80;99.90;;;;;;4945532;28;20603;-82
2023/03/08 02:27:40;;;;;;;10.00;5.88;;;2.80;99.90;;;;;;4929851;28;20186;-85
2023/03/08 02:30:06;;;;;;;6.50;5.00;;;2.80;99.90;;;;;;4952770;28;20230;-84
2023/03/08 02:32:31;;;;;;;5.50;3.75;;;2.60;99.90;;;;;;4951816;28;20423;-85
2023/03/08 02:34:57;;;;;;;14.37;5.30;;;2.60;99.90;;;;;;4947111;28;20190;-82
2023/03/08 02:37:23;;;;;;;5.80;3.30;;;2.60;99.90;;;;;;4955520;28;21634;-85
2023/03/08 02:39:48;;;;;;;8.40;4.33;;;2.60;99.90;;;;;;4964072;28;20231;-83
2023/03/08 02:42:14;;;;;;;7.17;4.50;;;2.50;99.90;;;;;;4955211;28;20237;-83
2023/03/08 02:44:39;;;;;;;9.63;4.70;;;2.60;99.90;;;;;;4973073;28;20211;-84
2023/03/08 02:47:05;;;;;;;8.70;4.77;;;2.70;99.90;;;;;;4950828;28;20192;-83
2023/03/08 02:49:30;;;;;;;7.90;3.80;;;2.80;99.90;;;;;;4974492;28;20211;-84
2023/03/08 02:51:56;;;;;;;6.63;4.77;;;2.90;99.90;;;;;;4957019;28;20190;-81
2023/03/08 02:54:22;;;;;;;13.43;6.60;;;3.00;99.90;;;;;;4951945;28;20696;-85
2023/03/08 02:56:47;;;;;;;21.47;7.70;;;3.00;99.90;;;;;;4956141;28;20437;-84
2023/03/08 02:59:13;;;;;;;10.80;5.03;;;3.10;99.90;;;;;;4956156;28;20205;-84
2023/03/08 03:01:38;;;;;;;11.67;5.40;;;3.10;99.90;;;;;;4970442;28;20195;-83
2023/03/08 03:04:04;;;;;;;13.23;5.90;;;3.00;99.90;;;;;;4959858;28;20207;-83
2023/03/08 03:06:29;;;;;;;8.80;5.93;;;3.00;99.90;;;;;;4962678;28;20180;-86
2023/03/08 03:08:55;;;;;;;9.47;5.30;;;3.00;99.90;;;;;;4954002;28;20191;-83
2023/03/08 03:11:21;;;;;;;28.60;6.50;;;3.00;99.90;;;;;;4967757;28;20916;-84
2023/03/08 03:13:52;;;;;;;10.85;4.85;;;3.00;99.90;;;;;;4981265;28;20175;-84
2023/03/08 03:16:18;;;;;;;9.43;4.97;;;3.10;99.90;;;;;;4958457;28;20327;-82
2023/03/08 03:18:43;;;;;;;11.30;5.53;;;3.10;99.90;;;;;;4939148;28;20422;-81
2023/03/08 03:21:12;;;;;;;11.23;4.80;;;3.10;99.90;;;;;;4962681;28;20207;-81
2023/03/08 03:23:38;;;;;;;12.60;6.00;;;3.10;99.90;;;;;;4974057;28;20222;-82
2023/03/08 03:26:10;;;;;;;10.18;5.25;;;3.10;99.90;;;;;;4951941;28;20180;-84
2023/03/08 03:28:36;;;;;;;16.58;5.25;;;3.10;99.90;;;;;;4951776;28;20176;-81
2023/03/08 03:31:24;;;;;;;10.03;4.43;;;3.10;99.90;;;;;;4970823;28;20209;-85
2023/03/08 03:33:50;;;;;;;11.70;6.80;;;3.10;99.90;;;;;;4946065;28;20462;-84
2023/03/08 03:36:18;;;;;;;10.90;5.60;;;3.10;99.90;;;;;;4962651;28;20188;-86
2023/03/08 03:38:44;;;;;;;10.38;6.05;;;3.20;99.90;;;;;;4974270;28;20439;-85
2023/03/08 03:41:16;;;;;;;9.73;6.30;;;3.30;99.90;;;;;;4944967;28;20210;-82
2023/03/08 03:43:42;;;;;;;17.67;5.45;;;3.30;99.90;;;;;;4957434;28;20313;-82
2023/03/08 03:46:11;;;;;;;11.83;7.93;;;3.20;99.90;;;;;;4956562;28;20247;-83
2023/03/08 03:48:37;;;;;;;7.97;5.65;;;3.20;99.90;;;;;;4962463;28;21142;-83
2023/03/08 03:51:04;;;;;;;12.20;4.87;;;3.20;99.90;;;;;;4962590;28;20222;-85
2023/03/08 03:53:31;;;;;;;12.25;7.10;;;3.10;99.90;;;;;;4940741;28;20442;-82
2023/03/08 03:56:05;;;;;;;7.45;4.25;;;3.20;99.90;;;;;;4950138;28;20200;-80
2023/03/08 03:58:31;;;;;;;13.63;5.78;;;3.00;99.90;;;;;;4959214;28;20188;-82
2023/03/08 04:00:58;;;;;;;13.03;5.07;;;3.10;99.90;;;;;;4951758;28;20223;-81
2023/03/08 04:03:23;;;;;;;12.32;6.53;;;3.10;99.90;;;;;;4945694;28;20890;-81
2023/03/08 04:05:49;;;;;;;12.10;6.50;;;;;;;;;;4969399;28;20226;-81
2023/03/08 04:08:15;;;;;;;13.20;6.93;;;3.20;99.90;;;;;;4969092;28;20566;-84
2023/03/08 04:10:41;;;;;;;12.00;5.77;;;3.30;99.90;;;;;;4969231;28;22311;-83
2023/03/08 04:13:06;;;;;;;16.67;7.90;;;3.30;99.90;;;;;;4967313;28;20438;-86
2023/03/08 04:15:32;;;;;;;11.70;5.60;;;3.30;99.90;;;;;;4950602;28;20450;-87
2023/03/08 04:17:57;;;;;;;12.33;6.00;;;3.30;99.90;;;;;;4984520;28;20615;-81
2023/03/08 04:20:23;;;;;;;7.23;3.97;;;3.30;99.90;;;;;;4975204;28;20294;-80
2023/03/08 04:22:49;;;;;;;10.47;5.93;;;3.20;99.90;;;;;;4963926;28;20683;-85
2023/03/08 04:25:15;;;;;;;10.83;5.90;;;3.20;99.90;;;;;;4952082;28;20470;-83
2023/03/08 04:27:40;;;;;;;12.37;6.10;;;3.20;99.90;;;;;;4965410;28;20187;-82
2023/03/08 04:30:07;;;;;;;13.43;6.53;;;3.30;99.90;;;;;;4950244;28;20490;-82
2023/03/08 04:32:32;;;;;;;12.65;6.82;;;3.20;99.90;;;;;;4971674;28;20203;-84
2023/03/08 04:34:58;;;;;;;11.70;5.40;;;3.30;99.90;;;;;;4946971;28;20710;-84
2023/03/08 04:37:24;;;;;;;14.80;7.23;;;3.30;99.90;;;;;;4966688;28;20246;-82
2023/03/08 04:39:50;;;;;;;13.27;6.65;;;3.40;99.90;;;;;;4968002;28;20257;-85
2023/03/08 04:42:16;;;;;;;12.20;6.60;;;3.40;99.90;;;;;;4947455;28;21524;-82
2023/03/08 04:44:41;;;;;;;8.43;5.10;;;3.40;99.90;;;;;;4960297;28;20238;-84
2023/03/08 04:47:07;;;;;;;16.47;7.87;;;3.40;99.90;;;;;;4956752;28;20293;-82
2023/03/08 04:49:32;;;;;;;11.60;5.83;;;3.40;99.90;;;;;;4950579;28;20211;-83
2023/03/08 04:51:58;;;;;;;18.60;7.50;;;3.40;99.90;;;;;;4948804;28;20184;-84
2023/03/08 04:54:23;;;;;;;11.23;6.40;;;3.30;99.90;;;;;;4952494;28;20186;-81
2023/03/08 04:56:49;;;;;;;11.13;5.07;;;3.30;99.90;;;;;;4945948;28;20180;-83
2023/03/08 04:59:14;;;;;;;7.73;4.90;;;3.40;99.90;;;;;;4961169;28;20330;-84
2023/03/08 05:01:41;;;;;;;12.67;5.83;;;3.40;99.90;;;;;;4960639;28;20179;-84
2023/03/08 05:04:10;;;;;;;9.50;5.18;;;3.50;99.90;;;;;;4953680;28;20218;-84
2023/03/08 05:06:35;;;;;;;22.83;6.68;;;3.50;99.90;;;;;;4963049;28;21036;-82
2023/03/08 05:09:01;;;;;;;10.40;4.70;;;3.40;99.90;;;;;;4965312;28;20196;-84
2023/03/08 05:11:27;;;;;;;10.73;6.50;;;3.50;99.90;;;;;;4943720;28;20184;-83
2023/03/08 05:13:54;;;;;;;9.68;5.85;;;3.40;99.90;;;;;;4948952;28;20192;-86
2023/03/08 05:16:19;;;;;;;7.85;5.35;;;3.50;99.90;;;;;;4941262;28;20288;-84
2023/03/08 05:18:45;;;;;;;14.30;7.50;;;3.50;99.90;;;;;;4952772;28;20180;-86
2023/03/08 05:21:14;;;;;;;12.70;7.03;;;3.40;99.90;;;;;;4951818;28;20782;-84
2023/03/08 05:23:39;;;;;;;17.63;7.15;;;3.40;99.90;;;;;;4948002;28;20207;-83
2023/03/08 05:26:07;;;;;;;8.73;4.60;;;3.40;99.90;;;;;;4968618;28;20186;-83
2023/03/08 05:28:35;;;;;;;6.57;4.97;;;3.50;99.90;;;;;;4970659;28;20225;-86
2023/03/08 05:31:06;;;;;;;14.32;5.13;;;3.40;99.90;;;;;;4949184;28;20200;-84
2023/03/08 05:33:34;;;;;;;37.53;18.50;;;3.50;99.90;;;;;;4955778;28;20377;-84
2023/03/08 05:36:00;;;;;;;21.10;8.93;;;3.40;99.90;;;;;;4958355;28;20197;-85
2023/03/08 05:38:25;;;;;;;19.43;6.90;;;3.40;99.90;;;;;;4973355;28;20183;-83
2023/03/08 05:40:51;;;;;;;12.73;8.03;;;3.50;99.90;;;;;;4958973;28;20202;-83
2023/03/08 05:43:17;;;;;;;11.37;6.53;;;3.50;99.90;;;;;;4965121;28;20218;-85
2023/03/08 05:45:54;;;;;;;10.10;6.82;;;3.50;99.90;;;;;;4958570;28;20477;-84
2023/03/08 05:48:20;;;;;;;10.82;4.88;;;3.40;99.90;;;;;;4938796;28;20195;-85
2023/03/08 05:50:45;;;;;;;12.90;6.27;;;3.40;99.90;;;;;;4967616;28;20547;-81
2023/03/08 05:53:11;;;;;;;17.70;4.97;;;3.40;99.90;;;;;;4966394;28;20230;-84
2023/03/08 05:55:36;;;;;;;16.10;8.07;;;3.50;99.90;;;;;;4976258;28;20186;-80
2023/03/08 05:58:02;;;;;;;8.47;5.40;;;3.50;99.90;;;;;;4961720;28;20683;-81
2023/03/08 06:00:27;;;;;;;10.07;5.37;;;3.50;99.90;;;;;;4952408;28;20685;-81
2023/03/08 06:02:53;;;;;;;12.60;6.23;;;3.50;99.90;;;;;;4973048;28;20199;-85
2023/03/08 06:05:18;;;;;;;9.60;6.70;;;3.50;99.90;;;;;;4953329;28;20671;-81
2023/03/08 06:07:44;;;;;;;14.37;7.60;;;3.50;99.90;;;;;;4981535;28;20188;-84
2023/03/08 06:10:09;;;;;;;14.60;5.40;;;3.50;99.90;;;;;;4978322;28;20207;-85
2023/03/08 06:12:35;;;;;;;6.93;4.33;;;3.50;99.90;;;;;;4961399;28;20183;-83
2023/03/08 06:15:00;;;;;;;15.37;6.97;;;3.40;99.90;;;;;;4960163;28;20176;-83
2023/03/08 06:17:26;;;;;;;9.07;6.40;;;3.50;99.90;;;;;;4974851;28;20298;-85
2023/03/08 06:19:51;;;;;;;9.47;5.47;;;3.50;99.90;;;;;;4951291;28;20223;-85
2023/03/08 06:22:17;;;;;;;10.90;5.90;;;3.50;99.90;;;;;;4956651;28;20875;-83
2023/03/08 06:24:42;;;;;;;14.47;7.43;;;3.60;99.90;;;;;;4973647;28;20204;-82
2023/03/08 06:27:08;;;;;;;17.03;8.10;;;3.60;99.90;;;;;;4958840;28;20668;-83
2023/03/08 06:29:33;;;;;;;13.03;6.70;;;3.70;99.90;;;;;;4961753;28;20206;-84
2023/03/08 06:31:59;;;;;;;10.97;6.70;;;3.70;99.90;;;;;;4959070;28;20180;-84
2023/03/08 06:34:24;;;;;;;21.70;8.37;;;3.80;99.90;;;;;;4970139;28;20191;-84
2023/03/08 06:36:50;;;;;;;15.57;9.27;;;3.70;99.90;;;;;;4951778;28;20184;-82
2023/03/08 06:39:16;;;;;;;25.17;11.27;;;3.80;99.90;;;;;;4964017;28;20203;-86
2023/03/08 06:41:42;;;;;;;13.80;6.80;;;3.70;99.90;;;;;;4982121;28;20191;-84
2023/03/08 06:44:08;;;;;;;13.60;6.70;;;3.80;99.90;;;;;;4978678;28;20207;-84
2023/03/08 06:46:33;;;;;;;16.77;6.80;;;3.80;99.90;;;;;;4959617;28;20194;-83
2023/03/08 06:49:00;;;;;;;18.27;7.57;;;3.80;99.90;;;;;;4975807;28;20200;-84
2023/03/08 06:51:25;;;;;;;16.45;7.53;;;3.80;99.90;;;;;;4970096;28;20638;-84
2023/03/08 06:53:51;;;;;;;13.10;6.27;;;3.90;99.90;;;;;;4972414;28;20270;-83
2023/03/08 06:56:17;;;;;;;16.40;7.97;;;3.90;99.90;;;;;;4979717;28;20191;-83
2023/03/08 06:58:43;;;;;;;24.98;12.30;;;3.80;99.90;;;;;;4946080;28;20198;-83
2023/03/08 07:01:09;;;;;;;20.92;10.68;;;3.90;99.90;;;;;;4959109;28;20195;-81
2023/03/08 07:03:35;;;;;;;8.80;5.78;;;4.00;99.90;;;;;;4960614;28;20262;-80
2023/03/08 07:06:03;;;;;;;15.38;6.85;;;4.00;99.90;;;;;;4953739;28;20274;-83
2023/03/08 07:08:29;;;;;;;8.35;5.75;;;4.00;99.90;;;;;;4986732;28;20207;-80
2023/03/08 07:10:54;;;;;;;10.37;6.90;;;4.20;99.90;;;;;;5003703;28;20214;-80
2023/03/08 07:13:22;;;;;;;17.63;7.67;;;4.20;99.90;;;;;;4992500;28;20487;-82
2023/03/08 07:15:48;;;;;;;12.20;7.72;;;4.20;99.90;;;;;;4977381;28;20194;-84
2023/03/08 07:18:13;;;;;;;19.67;9.23;;;4.20;99.90;;;;;;4982673;28;20218;-84
2023/03/08 07:20:39;;;;;;;15.30;7.63;;;4.20;99.90;;;;;;4973852;28;20965;-82
2023/03/08 07:23:04;;;;;;;16.20;7.40;;;4.30;99.90;;;;;;4955477;28;20199;-83
2023/03/08 07:25:30;;;;;;;14.07;7.90;;;4.40;99.90;;;;;;4972874;28;20634;-84
2023/03/08 07:27:58;;;;;;;22.00;7.90;;;4.50;99.90;;;;;;4964141;28;20189;-84
2023/03/08 07:30:23;;;;;;;17.73;8.93;;;4.80;99.90;;;;;;4959054;28;20205;-82
2023/03/08 07:32:52;;;;;;;14.87;8.50;;;4.90;99.90;;;;;;4961256;28;20188;-81
2023/03/08 07:35:17;;;;;;;13.95;8.45;;;5.00;99.90;;;;;;4944811;28;20210;-82
2023/03/08 07:37:45;;;;;;;18.00;9.30;;;4.90;99.90;;;;;;4965256;28;21098;-81
2023/03/08 07:40:15;;;;;;;12.82;7.20;;;4.80;99.90;;;;;;4970591;28;20203;-84
2023/03/08 07:42:41;;;;;;;13.50;7.65;;;4.60;99.90;;;;;;4979898;28;20247;-82
2023/03/08 07:45:07;;;;;;;15.05;8.27;;;4.30;99.90;;;;;;4979466;28;20337;-81
2023/03/08 07:47:33;;;;;;;20.10;8.40;;;4.10;99.90;;;;;;4955298;28;20206;-83
2023/03/08 07:49:58;;;;;;;23.57;11.40;;;3.90;99.90;;;;;;4975852;28;20206;-80
2023/03/08 07:52:28;;;;;;;14.37;7.70;;;3.60;99.90;;;;;;4954888;28;20307;-82
2023/03/08 07:54:54;;;;;;;22.45;10.00;;;3.40;99.90;;;;;;4981676;28;20437;-81
2023/03/08 07:57:19;;;;;;;23.33;12.80;;;3.40;99.90;;;;;;4990044;28;20187;-83
2023/03/08 07:59:45;;;;;;;17.60;9.63;;;3.30;99.90;;;;;;4968762;28;20207;-86
2023/03/08 08:02:12;;;;;;;31.17;12.33;;;3.20;99.90;;;;;;4961779;28;20711;-87
2023/03/08 08:04:37;;;;;;;15.73;8.45;;;3.20;99.90;;;;;;4946126;28;20203;-86
2023/03/08 08:07:03;;;;;;;27.30;12.67;;;3.20;99.90;;;;;;4971583;28;20209;-86
2023/03/08 08:09:28;;;;;;;15.90;8.50;;;3.10;99.90;;;;;;4957483;28;20195;-85
2023/03/08 08:11:54;;;;;;;16.33;9.80;;;3.10;99.90;;;;;;4952647;28;20176;-83
2023/03/08 08:14:19;;;;;;;19.33;11.50;;;3.30;99.90;;;;;;4960199;28;20203;-85
2023/03/08 08:16:45;;;;;;;20.47;9.67;;;3.40;99.90;;;;;;4980354;28;20190;-86
2023/03/08 08:19:13;;;;;;;24.47;10.57;;;3.50;99.90;;;;;;4979565;28;20191;-83
2023/03/08 08:21:39;;;;;;;40.65;16.80;;;3.60;99.90;;;;;;4970874;28;20219;-84
2023/03/08 08:24:05;;;;;;;41.80;16.90;;;3.60;99.90;;;;;;4973861;28;20651;-82
2023/03/08 08:26:30;;;;;;;26.77;12.40;;;3.60;99.90;;;;;;4972039;28;20463;-83
2023/03/08 08:28:56;;;;;;;21.73;11.60;;;3.50;99.90;;;;;;4965075;28;20208;-83
2023/03/08 08:31:27;;;;;;;14.10;6.80;;;3.50;99.90;;;;;;4965330;28;20163;-83
2023/03/08 08:33:53;;;;;;;23.75;8.98;;;3.50;99.90;;;;;;4983126;28;20186;-84
2023/03/08 08:36:19;;;;;;;14.67;8.20;;;3.50;99.90;;;;;;4961747;28;20195;-85
2023/03/08 08:38:46;;;;;;;15.25;8.82;;;3.50;99.90;;;;;;4957096;28;20246;-81
2023/03/08 08:41:14;;;;;;;14.52;8.10;;;3.40;99.90;;;;;;4954659;28;20211;-82
2023/03/08 08:43:40;;;;;;;18.38;8.02;;;3.40;99.90;;;;;;4966191;28;20231;-84
2023/03/08 08:46:07;;;;;;;16.70;8.25;;;3.60;99.90;;;;;;4960022;28;20183;-84
2023/03/08 08:48:36;;;;;;;17.73;7.82;;;3.60;99.90;;;;;;4960451;28;20181;-84
2023/03/08 08:51:01;;;;;;;19.00;10.48;;;3.60;99.90;;;;;;4957238;28;20208;-84
2023/03/08 08:53:27;;;;;;;11.90;8.03;;;3.60;99.90;;;;;;4959351;28;20183;-83
2023/03/08 08:55:53;;;;;;;17.40;8.53;;;3.90;99.90;;;;;;4957780;28;20618;-84
2023/03/08 08:58:18;;;;;;;17.33;9.50;;;4.00;99.90;;;;;;4970436;28;20257;-84
2023/03/08 09:00:44;;;;;;;20.20;9.10;;;3.80;99.90;;;;;;4941557;28;20242;-83
2023/03/08 09:03:10;;;;;;;14.65;8.18;;;3.90;99.90;;;;;;4942455;28;20190;-84
2023/03/08 09:05:41;;;;;;;20.07;8.63;;;4.00;99.90;;;;;;4976413;28;20851;-82
2023/03/08 09:08:07;;;;;;;19.25;8.23;;;4.00;99.90;;;;;;4977036;28;20184;-83
2023/03/08 09:10:35;;;;;;;20.33;10.63;;;3.90;99.90;;;;;;4970292;28;20250;-82
2023/03/08 09:13:00;;;;;;;23.20;12.98;;;4.00;99.90;;;;;;4951191;28;20450;-81
2023/03/08 09:15:26;;;;;;;16.87;9.30;;;4.10;99.90;;;;;;4947198;28;20222;-84
2023/03/08 09:17:51;;;;;;;17.53;8.53;;;4.40;99.90;;;;;;4958533;28;20277;-81
2023/03/08 09:20:18;;;;;;;14.93;9.87;;;4.50;99.90;;;;;;4978547;28;20227;-83
2023/03/08 09:22:44;;;;;;;22.98;9.90;;;4.70;99.90;;;;;;4976879;28;20198;-83
2023/03/08 09:25:10;;;;;;;16.60;9.00;;;4.60;99.90;;;;;;4972699;28;20731;-83
2023/03/08 09:27:37;;;;;;;19.88;10.18;;;4.60;99.90;;;;;;4973657;28;20180;-83
2023/03/08 09:30:08;;;;;;;21.60;8.15;;;4.60;99.90;;;;;;4950654;28;20204;-83
2023/03/08 09:32:35;;;;;;;15.15;7.90;;;4.80;99.90;;;;;;4941964;28;20176;-83
2023/03/08 09:35:00;;;;;;;20.15;8.93;;;4.60;99.90;;;;;;4979660;28;20180;-83
2023/03/08 09:37:26;;;;;;;12.30;6.50;;;4.70;99.90;;;;;;4979039;28;20242;-82
2023/03/08 09:39:52;;;;;;;15.80;8.97;;;4.60;99.90;;;;;;4971429;28;20533;-82
2023/03/08 09:42:22;;;;;;;21.43;9.67;;;4.70;99.90;;;;;;4987591;28;20187;-83
2023/03/08 09:45:22;;;;;;;27.10;6.72;;;4.70;99.90;;;;;;4939824;28;20199;-87
2023/03/08 09:48:03;;;;;;;11.90;6.47;;;4.80;99.90;;;;;;4975465;28;20234;-85
2023/03/08 09:50:36;;;;;;;10.85;6.63;;;4.80;99.90;;;;;;4960043;28;20209;-84
2023/03/08 09:53:17;;;;;;;16.23;8.52;;;4.90;99.90;;;;;;4960862;28;20215;-82
2023/03/08 09:55:54;;;;;;;17.60;9.27;;;4.90;99.90;;;;;;4942329;28;20187;-85
2023/03/08 09:58:35;;;;;;;22.80;8.52;;;4.90;99.90;;;;;;4981805;28;20186;-82
2023/03/08 10:01:32;;;;;;;17.20;8.93;;;5.10;99.90;;;;;;4965203;28;20463;-84
2023/03/08 10:04:30;;;;;;;14.63;8.25;;;5.10;99.90;;;;;;4963023;28;20290;-81
2023/03/08 10:07:23;;;;;;;19.25;11.82;;;5.30;99.90;;;;;;4940127;28;20187;-82
2023/03/08 10:10:08;;;;;;;16.23;8.05;;;5.40;99.90;;;;;;4958570;28;20242;-81
2023/03/08 10:12:34;;;;;;;20.30;10.18;;;5.70;99.90;;;;;;4954500;28;20183;-82
2023/03/08 10:15:08;;;;;;;23.23;9.93;;;5.80;99.90;;;;;;4952829;28;20289;-84
2023/03/08 10:18:04;;;;;;;16.10;8.48;;;5.80;99.90;;;;;;4967831;28;20194;-81
2023/03/08 10:20:39;;;;;;;16.50;9.45;;;5.90;99.90;;;;;;4918674;28;20211;-81
2023/03/08 10:23:19;;;;;;;18.15;8.60;;;6.30;99.90;;;;;;4974715;28;20186;-79
2023/03/08 10:25:47;;;;;;;18.13;8.50;;;6.30;99.90;;;;;;4973811;28;20179;-81
2023/03/08 10:28:15;;;;;;;15.10;9.82;;;6.10;99.90;;;;;;4969676;28;20183;-81
2023/03/08 10:30:45;;;;;;;17.30;9.63;;;6.10;99.90;;;;;;4954545;28;20282;-81
2023/03/08 10:33:13;;;;;;;18.15;8.93;;;5.90;99.90;;;;;;4968797;28;20191;-82
2023/03/08 10:36:01;;;;;;;11.38;6.72;;;6.00;99.90;;;;;;4983601;28;20188;-83
2023/03/08 10:38:30;;;;;;;20.05;10.30;;;6.00;99.90;;;;;;4960339;28;20175;-82
2023/03/08 10:41:11;;;;;;;16.33;8.88;;;6.30;99.90;;;;;;4960412;28;20211;-82
2023/03/08 10:43:52;;;;;;;15.75;8.50;;;6.30;99.90;;;;;;4975156;28;20209;-82
2023/03/08 10:46:21;;;;;;;15.40;9.38;;;6.40;99.90;;;;;;4955526;28;20229;-81
2023/03/08 10:48:47;;;;;;;15.20;9.20;;;6.80;99.90;;;;;;4950724;28;20190;-81
2023/03/08 10:51:27;;;;;;;16.25;9.27;;;6.60;99.90;;;;;;4950299;28;20207;-80
2023/03/08 10:53:59;;;;;;;19.13;10.20;;;6.80;99.90;;;;;;4963564;28;20203;-83
2023/03/08 10:56:37;;;;;;;19.05;9.55;;;7.10;99.90;;;;;;4975847;28;20271;-82
2023/03/08 10:59:05;;;;;;;14.57;8.13;;;7.40;99.90;;;;;;4955438;28;21091;-83
2023/03/08 11:01:33;;;;;;;12.73;7.93;;;7.50;99.90;;;;;;4958498;28;20192;-82
2023/03/08 11:04:11;;;;;;;16.10;8.80;;;8.00;99.90;;;;;;4955064;28;20210;-82
2023/03/08 11:06:37;;;;;;;12.77;7.57;;;8.20;99.90;;;;;;4976695;28;20197;-81
2023/03/08 11:09:17;;;;;;;15.57;7.37;;;8.20;99.90;;;;;;4980770;28;20306;-82
2023/03/08 11:11:43;;;;;;;14.00;8.05;;;8.10;99.90;;;;;;4962824;28;20183;-82
2023/03/08 11:14:10;;;;;;;12.17;8.40;;;8.00;99.90;;;;;;4961510;28;20194;-82
2023/03/08 11:17:09;;;;;;;12.95;7.90;;;8.10;99.90;;;;;;4953343;28;20692;-83
2023/03/08 11:19:58;;;;;;;8.20;5.03;;;8.30;99.90;;;;;;4971286;28;20243;-83
2023/03/08 11:22:50;;;;;;;16.35;6.70;;;8.50;99.90;;;;;;4964500;28;20187;-84
2023/03/08 11:25:54;;;;;;;11.73;6.63;;;8.50;99.90;;;;;;4963038;28;20211;-85
2023/03/08 11:28:37;;;;;;;13.77;6.40;;;8.60;99.90;;;;;;4958623;28;20561;-85
2023/03/08 11:31:19;;;;;;;8.73;5.70;;;8.60;99.90;;;;;;4974743;28;20302;-81
2023/03/08 11:33:53;;;;;;;9.18;5.35;;;8.80;99.90;;;;;;4957182;28;20176;-81
2023/03/08 11:36:54;;;;;;;15.07;8.80;;;8.90;99.90;;;;;;4957067;28;20672;-82
2023/03/08 11:39:31;;;;;;;8.57;5.30;;;9.20;99.90;;;;;;4920821;28;21057;-82
2023/03/08 11:41:57;;;;;;;6.25;4.18;;;9.60;99.90;;;;;;4979326;28;20268;-80
2023/03/08 11:45:08;;;;;;;6.80;3.50;;;10.00;99.90;;;;;;4959021;28;20806;-83
2023/03/08 11:47:52;;;;;;;5.65;3.15;;;10.10;99.90;;;;;;4957855;28;20239;-80
2023/03/08 11:50:22;;;;;;;4.05;2.70;;;9.70;99.90;;;;;;4955727;28;20200;-80
2023/03/08 11:53:24;;;;;;;5.32;2.78;;;10.10;99.90;;;;;;4959194;28;20247;-80
2023/03/08 11:56:12;;;;;;;3.05;2.13;;;10.40;99.90;;;;;;4965561;28;20260;-82
2023/03/08 11:58:55;;;;;;;4.32;2.38;;;11.10;99.90;;;;;;4976253;28;20246;-81
2023/03/08 12:01:39;;;;;;;5.13;2.92;;;11.40;99.90;;;;;;4999511;28;20235;-81
2023/03/08 12:04:14;;;;;;;4.35;2.08;;;11.10;99.90;;;;;;4998900;28;20267;-79
2023/03/08 12:06:44;;;;;;;2.05;1.50;;;10.90;99.90;;;;;;4997120;28;20281;-79
2023/03/08 12:09:22;;;;;;;2.60;1.30;;;11.10;99.90;;;;;;4984439;28;20192;-79
2023/03/08 12:12:00;;;;;;;5.88;1.27;;;11.00;99.90;;;;;;4985944;28;20255;-79
2023/03/08 12:14:32;;;;;;;2.25;1.20;;;11.40;99.90;;;;;;4986768;28;20395;-80
2023/03/08 12:17:18;;;;;;;1.65;0.93;;;11.40;99.90;;;;;;4970301;28;20223;-79
2023/03/08 12:19:46;;;;;;;2.08;0.80;;;11.60;99.90;;;;;;4996694;28;20187;-79
2023/03/08 12:22:34;;;;;;;2.22;0.98;;;11.70;99.90;;;;;;4991271;28;20234;-79
2023/03/08 12:25:37;;;;;;;1.05;0.63;;;11.50;99.90;;;;;;4978651;28;20297;-82
2023/03/08 12:28:29;;;;;;;4.03;0.60;;;11.20;99.90;;;;;;4938290;28;20226;-83
2023/03/08 12:31:20;;;;;;;1.63;0.65;;;11.30;99.90;;;;;;4977479;28;20265;-82
2023/03/08 12:33:46;;;;;;;0.60;0.57;;;11.60;99.90;;;;;;4974411;28;20558;-82
2023/03/08 12:36:12;;;;;;;0.77;0.60;;;11.50;99.90;;;;;;4966956;28;20210;-82
2023/03/08 12:38:41;;;;;;;0.87;0.70;;;11.60;99.90;;;;;;4965074;28;20184;-83
2023/03/08 12:41:30;;;;;;;0.73;0.65;;;11.60;99.90;;;;;;4981190;28;20215;-82
2023/03/08 12:44:20;;;;;;;0.85;0.57;;;11.90;99.90;;;;;;4982934;28;20245;-81
2023/03/08 12:46:59;;;;;;;2.20;0.80;;;12.10;99.90;;;;;;4976857;28;20190;-82
2023/03/08 12:49:32;;;;;;;0.85;0.60;;;12.10;99.90;;;;;;4974693;28;20207;-82
2023/03/08 12:52:23;;;;;;;1.90;0.90;;;12.30;99.90;;;;;;4973469;28;20194;-82
2023/03/08 12:55:04;;;;;;;0.77;0.55;;;12.20;99.90;;;;;;4956705;28;20226;-82
2023/03/08 12:57:41;;;;;;;1.40;0.80;;;12.20;99.90;;;;;;4982336;28;20201;-81
2023/03/08 13:00:28;;;;;;;0.77;0.65;;;12.50;99.90;;;;;;4961065;28;20219;-83
2023/03/08 13:03:12;;;;;;;0.80;0.65;;;12.50;99.90;;;;;;4975433;28;20671;-82